createdAt,value
2023-05-29T00:00:10.711Z,9.70
2023-05-29T00:03:03.059Z,9.66
2023-05-29T00:06:08.452Z,9.64
2023-05-29T00:08:47.677Z,9.59
2023-05-29T00:11:20.096Z,9.55
2023-05-29T00:13:58.807Z,9.52
2023-05-29T00:16:31.680Z,9.49
2023-05-29T00:19:04.033Z,9.47
2023-05-29T00:25:31.881Z,9.38
2023-05-29T00:28:04.299Z,9.37
2023-05-29T00:35:18.203Z,9.30
2023-05-29T00:37:51.967Z,9.27
2023-05-29T00:40:24.264Z,9.25
2023-05-29T00:43:28.369Z,9.22
2023-05-29T00:59:34.272Z,9.09
2023-05-29T01:02:53.945Z,9.02
2023-05-29T01:06:45.005Z,8.96
2023-05-29T01:09:17.909Z,8.91
2023-05-29T01:12:24.531Z,8.90
2023-05-29T01:31:22.936Z,8.74
2023-05-29T01:34:16.430Z,8.67
2023-05-29T01:36:55.851Z,8.63
2023-05-29T01:39:28.674Z,8.60
2023-05-29T01:42:09.965Z,8.58
2023-05-29T01:44:56.276Z,8.53
2023-05-29T01:51:37.933Z,8.54
2023-05-29T01:54:11.127Z,8.53
2023-05-29T01:56:51.782Z,8.48
2023-05-29T01:59:39.187Z,8.43
2023-05-29T02:06:13.328Z,8.37
2023-05-29T02:20:53.980Z,8.07
2023-05-29T02:27:59.866Z,8.01
2023-05-29T02:30:32.503Z,8.01
2023-05-29T02:33:04.888Z,7.98
2023-05-29T02:35:59.841Z,7.98
2023-05-29T02:38:38.929Z,7.96
2023-05-29T02:41:12.998Z,7.95
2023-05-29T02:43:51.902Z,7.92
2023-05-29T02:51:07.624Z,7.87
2023-05-29T02:53:40.001Z,7.83
2023-05-29T02:56:17.015Z,7.83
2023-05-29T02:58:56.169Z,7.84
2023-05-29T03:01:28.485Z,7.83
2023-05-29T03:04:24.507Z,7.81
2023-05-29T03:06:56.682Z,7.82
2023-05-29T03:09:29.275Z,7.80
2023-05-29T03:16:05.756Z,7.84
2023-05-29T03:23:12.907Z,7.86
2023-05-29T03:25:52.757Z,7.89
2023-05-29T03:28:25.614Z,7.91
2023-05-29T03:35:23.286Z,7.99
2023-05-29T03:38:15.360Z,8.02
2023-05-29T03:40:53.910Z,8.04
2023-05-29T03:43:26.167Z,8.06
2023-05-29T03:46:04.940Z,8.10
2023-05-29T03:48:37.726Z,8.15
2023-05-29T03:51:17.278Z,8.18
2023-05-29T03:58:22.990Z,8.31
2023-05-29T04:01:03.686Z,8.37
2023-05-29T04:03:36.737Z,8.41
2023-05-29T04:06:09.839Z,8.46
2023-05-29T04:13:37.607Z,8.60
2023-05-29T04:16:12.503Z,8.67
2023-05-29T04:18:44.897Z,8.75
2023-05-29T04:21:24.294Z,8.82
2023-05-29T04:23:57.250Z,8.90
2023-05-29T04:26:36.289Z,8.99
2023-05-29T04:29:08.563Z,9.08
2023-05-29T04:35:36.171Z,9.33
2023-05-29T04:39:33.536Z,9.43
2023-05-29T04:42:08.099Z,9.55
2023-05-29T04:45:15.859Z,9.68
2023-05-29T04:47:48.303Z,9.81
2023-05-29T04:54:54.079Z,10.17
2023-05-29T04:58:01.490Z,10.32
2023-05-29T05:05:07.677Z,10.80
2023-05-29T05:07:40.198Z,10.97
2023-05-29T05:19:07.766Z,11.80
2023-05-29T05:21:41.406Z,11.98
2023-05-29T05:24:46.835Z,12.17
2023-05-29T05:31:48.946Z,12.70
2023-05-29T05:34:24.703Z,12.89
2023-05-29T05:42:01.130Z,13.43
2023-05-29T05:46:07.686Z,13.65
2023-05-29T05:48:41.911Z,13.90
2023-05-29T05:51:31.921Z,14.11
2023-05-29T05:54:04.079Z,14.30
2023-05-29T05:56:36.864Z,14.46
2023-05-29T05:59:16.216Z,14.63
2023-05-29T06:01:48.571Z,14.79
2023-05-29T06:04:21.140Z,14.97
2023-05-29T06:07:09.728Z,15.14
2023-05-29T06:09:41.945Z,15.32
2023-05-29T06:16:47.975Z,15.82
2023-05-29T06:19:20.484Z,16.00
2023-05-29T06:22:19.827Z,16.19
2023-05-29T06:24:52.231Z,16.37
2023-05-29T06:31:57.147Z,16.79
2023-05-29T06:38:17.593Z,17.11
2023-05-29T06:40:50.441Z,17.25
2023-05-29T06:43:23.117Z,17.35
2023-05-29T06:49:43.067Z,17.63
2023-05-29T06:52:15.353Z,17.71
2023-05-29T06:56:22.216Z,17.83
2023-05-29T06:58:54.569Z,18.03
2023-05-29T07:01:27.705Z,18.15
2023-05-29T07:05:11.634Z,18.28
2023-05-29T07:07:44.055Z,18.46
2023-05-29T07:10:40.297Z,18.61
2023-05-29T07:14:12.992Z,18.76
2023-05-29T07:17:06.487Z,18.97
2023-05-29T07:19:38.916Z,19.13
2023-05-29T07:22:39.370Z,19.20
2023-05-29T07:25:12.320Z,19.32
2023-05-29T07:31:18.331Z,19.67
2023-05-29T07:37:27.316Z,19.93
2023-05-29T07:43:52.564Z,20.18
2023-05-29T07:46:25.908Z,20.31
2023-05-29T07:49:12.416Z,20.44
2023-05-29T07:51:46.208Z,20.52
2023-05-29T07:54:48.920Z,20.59
2023-05-29T07:57:23.347Z,20.70
2023-05-29T08:03:52.987Z,20.95
2023-05-29T08:06:39.309Z,21.01
2023-05-29T08:12:53.245Z,21.25
2023-05-29T08:15:46.826Z,21.32
2023-05-29T08:18:22.545Z,21.39
2023-05-29T08:20:55.334Z,21.44
2023-05-29T08:23:35.615Z,21.50
2023-05-29T08:26:08.531Z,21.63
2023-05-29T08:29:12.639Z,21.73
2023-05-29T08:31:44.967Z,21.81
2023-05-29T08:34:17.688Z,21.87
2023-05-29T08:36:57.043Z,21.92
2023-05-29T08:39:29.730Z,22.03
2023-05-29T08:42:35.744Z,22.10
2023-05-29T08:45:15.233Z,22.22
2023-05-29T08:51:18.754Z,22.33
2023-05-29T08:57:24.481Z,22.59
2023-05-29T09:08:27.349Z,22.91
2023-05-29T09:11:00.129Z,22.87
2023-05-29T09:17:09.431Z,22.97
2023-05-29T09:23:08.137Z,23.27
2023-05-29T09:33:12.762Z,23.46
2023-05-29T09:44:17.501Z,23.51
2023-05-29T09:47:23.924Z,23.62
2023-05-29T09:49:57.527Z,23.72
2023-05-29T09:52:33.374Z,23.71
2023-05-29T09:59:26.472Z,23.84
2023-05-29T10:02:08.451Z,23.89
2023-05-29T10:05:25.748Z,23.95
2023-05-29T10:11:49.622Z,24.00
2023-05-29T10:15:22.067Z,24.08
2023-05-29T10:18:03.170Z,24.07
2023-05-29T10:21:21.564Z,24.19
2023-05-29T10:28:32.319Z,24.22
2023-05-29T10:31:11.174Z,24.32
2023-05-29T10:38:28.919Z,24.45
2023-05-29T10:45:08.368Z,24.45
2023-05-29T10:51:32.948Z,24.61
2023-05-29T10:54:47.873Z,24.64
2023-05-29T11:09:53.258Z,24.69
2023-05-29T11:17:00.559Z,24.62
2023-05-29T11:20:34.048Z,24.62
2023-05-29T11:23:09.314Z,24.60
2023-05-29T11:30:18.460Z,24.52
2023-05-29T11:33:38.092Z,24.60
2023-05-29T11:41:03.340Z,24.66
2023-05-29T11:43:35.728Z,24.70
2023-05-29T11:46:37.348Z,24.73
2023-05-29T11:53:45.664Z,24.87
2023-05-29T11:56:24.201Z,24.88
2023-05-29T12:02:50.713Z,24.95
2023-05-29T12:09:58.911Z,25.05
2023-05-29T12:12:37.665Z,25.04
2023-05-29T12:15:12.080Z,24.96
2023-05-29T12:17:44.637Z,24.99
2023-05-29T12:24:14.500Z,25.05
2023-05-29T12:27:33.781Z,25.12
2023-05-29T12:30:24.215Z,25.18
2023-05-29T12:33:47.753Z,25.30
2023-05-29T12:40:36.059Z,25.37
2023-05-29T12:43:10.366Z,25.48
2023-05-29T12:46:12.696Z,25.52
2023-05-29T12:48:45.342Z,25.51
2023-05-29T12:56:10.183Z,25.68
2023-05-29T13:01:58.097Z,25.70
2023-05-29T13:04:31.050Z,25.67
2023-05-29T13:07:10.147Z,25.67
2023-05-29T13:09:43.041Z,25.73
2023-05-29T13:12:45.410Z,25.73
2023-05-29T13:19:56.797Z,25.77
2023-05-29T13:27:01.920Z,25.89
2023-05-29T13:29:34.763Z,25.89
2023-05-29T13:33:10.955Z,25.90
2023-05-29T13:35:43.445Z,25.78
2023-05-29T13:38:16.410Z,25.82
2023-05-29T13:40:48.697Z,25.91
2023-05-29T13:43:26.810Z,25.98
2023-05-29T13:54:59.193Z,26.16
2023-05-29T13:57:32.261Z,26.14
2023-05-29T14:00:30.256Z,26.11
2023-05-29T14:03:04.452Z,25.99
2023-05-29T14:05:50.883Z,25.93
2023-05-29T14:08:39.005Z,25.92
2023-05-29T14:14:45.273Z,25.76
2023-05-29T14:21:04.938Z,25.74
2023-05-29T14:24:10.105Z,25.80
2023-05-29T14:26:51.041Z,25.64
2023-05-29T14:34:17.028Z,25.71
2023-05-29T14:36:55.954Z,25.66
2023-05-29T14:39:28.352Z,25.70
2023-05-29T14:42:07.855Z,25.75
2023-05-29T14:44:40.371Z,25.74
2023-05-29T14:47:20.317Z,25.65
2023-05-29T14:49:52.586Z,25.55
2023-05-29T14:52:31.202Z,25.58
2023-05-29T14:58:53.910Z,25.53
2023-05-29T15:05:59.094Z,25.18
2023-05-29T15:08:37.968Z,25.10
2023-05-29T15:11:10.640Z,25.03
2023-05-29T15:13:45.865Z,24.99
2023-05-29T15:20:50.357Z,25.00
2023-05-29T15:23:24.100Z,25.00
2023-05-29T15:26:57.376Z,24.93
2023-05-29T15:32:28.415Z,24.93
2023-05-29T15:35:01.418Z,24.90
2023-05-29T15:37:33.742Z,24.91
2023-05-29T15:43:44.631Z,24.87
2023-05-29T15:46:24.178Z,24.82
2023-05-29T15:49:36.765Z,24.82
2023-05-29T15:52:23.072Z,24.83
2023-05-29T15:54:55.461Z,24.81
2023-05-29T15:57:27.687Z,24.81
2023-05-29T15:59:59.913Z,24.76
2023-05-29T16:02:32.345Z,24.68
2023-05-29T16:05:07.558Z,24.67
2023-05-29T16:07:53.375Z,24.64
2023-05-29T16:10:26.691Z,24.55
2023-05-29T16:12:59.005Z,24.49
2023-05-29T16:15:31.312Z,24.45
2023-05-29T16:18:03.946Z,24.34
2023-05-29T16:20:36.810Z,24.29
2023-05-29T16:23:11.465Z,24.29
2023-05-29T16:25:46.204Z,24.26
2023-05-29T16:28:18.869Z,24.26
2023-05-29T16:30:54.394Z,24.22
2023-05-29T16:33:37.852Z,24.11
2023-05-29T16:36:11.911Z,23.86
2023-05-29T16:38:50.377Z,23.64
2023-05-29T16:41:23.151Z,23.49
2023-05-29T16:43:55.399Z,23.47
2023-05-29T16:46:35.327Z,23.37
2023-05-29T16:49:08.339Z,23.29
2023-05-29T16:51:40.537Z,23.26
2023-05-29T16:54:13.133Z,23.27
2023-05-29T16:56:45.295Z,23.24
2023-05-29T16:59:19.680Z,23.17
2023-05-29T17:01:52.018Z,23.15
2023-05-29T17:04:24.434Z,23.16
2023-05-29T17:06:56.827Z,23.11
2023-05-29T17:09:31.922Z,23.03
2023-05-29T17:12:04.338Z,22.92
2023-05-29T17:14:36.601Z,22.86
2023-05-29T17:17:09.840Z,22.73
2023-05-29T17:19:42.218Z,22.59
2023-05-29T17:22:14.536Z,22.47
2023-05-29T17:24:46.811Z,22.39
2023-05-29T17:27:19.156Z,22.25
2023-05-29T17:29:51.370Z,22.14
2023-05-29T17:32:23.670Z,22.01
2023-05-29T17:34:55.869Z,21.91
2023-05-29T17:37:28.887Z,21.83
2023-05-29T17:40:02.334Z,21.75
2023-05-29T17:42:34.924Z,21.71
2023-05-29T17:45:09.571Z,21.62
2023-05-29T17:47:46.138Z,21.53
2023-05-29T17:50:18.440Z,21.42
2023-05-29T17:52:50.660Z,21.31
2023-05-29T17:55:23.261Z,21.16
2023-05-29T17:57:56.673Z,21.03
2023-05-29T18:00:29.252Z,20.92
2023-05-29T18:03:02.686Z,20.79
2023-05-29T18:05:36.186Z,20.67
2023-05-29T18:08:08.520Z,20.54
2023-05-29T18:10:40.816Z,20.43
2023-05-29T18:13:13.230Z,20.31
2023-05-29T18:15:45.710Z,20.17
2023-05-29T18:18:20.010Z,20.05
2023-05-29T18:20:53.773Z,19.92
2023-05-29T18:23:26.059Z,19.81
2023-05-29T18:25:58.696Z,19.68
2023-05-29T18:28:31.426Z,19.56
2023-05-29T18:31:03.766Z,19.43
2023-05-29T18:33:36.021Z,19.30
2023-05-29T18:36:08.934Z,19.16
2023-05-29T18:38:42.256Z,19.03
2023-05-29T18:41:14.556Z,18.91
2023-05-29T18:43:47.108Z,18.71
2023-05-29T18:46:22.422Z,18.59
2023-05-29T18:48:54.891Z,18.53
2023-05-29T18:51:27.538Z,18.50
2023-05-29T18:54:00.532Z,18.37
2023-05-29T18:56:32.921Z,18.27
2023-05-29T18:59:05.181Z,18.14
2023-05-29T19:01:39.969Z,18.01
2023-05-29T19:04:15.175Z,17.87
2023-05-29T19:06:47.551Z,17.73
2023-05-29T19:09:19.949Z,17.60
2023-05-29T19:11:52.198Z,17.51
2023-05-29T19:14:24.404Z,17.38
2023-05-29T19:16:56.714Z,17.29
2023-05-29T19:19:29.030Z,17.16
2023-05-29T19:29:08.318Z,16.77
2023-05-29T19:31:40.927Z,16.63
2023-05-29T19:37:57.016Z,16.28
2023-05-29T19:44:16.240Z,16.06
2023-05-29T19:51:13.749Z,15.83
2023-05-29T20:04:28.924Z,15.57
2023-05-29T20:07:34.300Z,15.52
2023-05-29T20:18:54.790Z,15.11
2023-05-29T20:21:34.506Z,15.03
2023-05-29T20:24:08.353Z,15.01
2023-05-29T20:26:41.584Z,14.98
2023-05-29T20:29:20.439Z,14.94
2023-05-29T20:32:03.958Z,14.89
2023-05-29T20:34:42.896Z,14.88
2023-05-29T20:37:15.559Z,14.89
2023-05-29T20:43:41.888Z,14.92
2023-05-29T20:46:16.715Z,14.90
2023-05-29T20:48:55.529Z,14.86
2023-05-29T20:51:28.123Z,14.84
2023-05-29T20:54:06.767Z,14.85
2023-05-29T20:56:40.787Z,14.87
2023-05-29T20:59:20.946Z,14.83
2023-05-29T21:01:53.755Z,14.81
2023-05-29T21:08:58.651Z,14.79
2023-05-29T21:11:44.808Z,14.79
2023-05-29T21:14:17.084Z,14.81
2023-05-29T21:16:49.317Z,14.81
2023-05-29T21:19:28.559Z,14.80
2023-05-29T21:22:02.249Z,14.79
2023-05-29T21:24:41.710Z,14.80
2023-05-29T21:27:13.952Z,14.80
2023-05-29T21:29:52.777Z,14.77
2023-05-29T21:32:25.183Z,14.77
2023-05-29T21:34:58.632Z,14.77
2023-05-29T21:42:03.456Z,14.75
2023-05-29T21:44:35.983Z,14.76
2023-05-29T21:47:14.885Z,14.77
2023-05-29T21:49:47.138Z,14.75
2023-05-29T21:52:20.295Z,14.75
2023-05-29T21:54:52.471Z,14.76
2023-05-29T21:57:44.743Z,14.77
2023-05-29T22:00:18.531Z,14.78
2023-05-29T22:02:51.080Z,14.78
2023-05-29T22:08:56.756Z,14.75
2023-05-29T22:11:30.054Z,14.75
2023-05-29T22:14:02.309Z,14.74
2023-05-29T22:16:40.981Z,14.73
2023-05-29T22:23:45.680Z,14.64
2023-05-29T22:26:30.730Z,14.63
2023-05-29T22:29:47.999Z,14.60
2023-05-29T22:32:20.924Z,14.59
2023-05-29T22:34:59.994Z,14.58
2023-05-29T22:42:04.854Z,14.47
2023-05-29T22:44:43.602Z,14.47
2023-05-29T22:47:16.873Z,14.46
2023-05-29T22:49:55.631Z,14.43
2023-05-29T22:52:28.713Z,14.41
2023-05-29T22:55:25.808Z,14.40
2023-05-29T22:57:58.417Z,14.40
2023-05-29T23:05:12.367Z,14.35
2023-05-29T23:07:44.590Z,14.33
2023-05-29T23:18:30.785Z,14.24
2023-05-29T23:21:03.023Z,14.22
2023-05-29T23:23:35.229Z,14.20
2023-05-29T23:26:07.455Z,14.18
2023-05-29T23:32:44.922Z,14.13
2023-05-29T23:35:17.311Z,14.13
2023-05-29T23:37:52.591Z,14.08
2023-05-29T23:41:42.983Z,14.06
2023-05-29T23:44:21.709Z,14.05
2023-05-29T23:46:53.946Z,14.01
2023-05-29T23:49:33.738Z,14.00
2023-05-29T23:52:06.626Z,13.96
2023-05-29T23:54:45.629Z,13.93
2023-05-29T23:57:18.346Z,13.93
2023-05-29T23:59:56.748Z,13.90
